Terminal Aerodrome Forecast
Issued by NWS Binghamton, NY

Home | Current Version | Previous Version | Text Only | Print | Product List | Glossary On
Versions: 1 2 3 4 5 6 7 8 9 10 11 12 13 14 15 16 17 18
000
FTUS41 KBGM 290500
TAFBGM
TAF
KBGM 290530Z 2906/3006 VRB03KT P6SM SKC
     FM291200 14004KT P6SM BKN150
     FM291800 15010KT P6SM OVC080
     FM300000 16012KT 1 1/2SM -SN OVC015=

USA.gov is the U.S. government's official web portal to all federal, state and local government web resources and services.